Time;durP1;ratioP1;P1;durP2;ratioP2;P2;SDS_P1;SDS_P2;PMS_P1;PMS_P2;Temp;Humidity;BMP_temperature;BMP_pressure;BME280_temperature;BME280_humidity;BME280_pressure;Samples;Min_cycle;Max_cycle;Signal;HPM_P1;HPM_P2
2023/04/24 00:00:01;;;;;;;41.53;39.03;;;10.60;99.90;;;;;;5091880;28;20088;-69
2023/04/24 00:02:27;;;;;;;41.42;38.58;;;10.60;99.90;;;;;;5090059;28;20036;-70
2023/04/24 00:04:52;;;;;;;44.63;41.92;;;10.50;99.90;;;;;;5074950;28;20050;-69
2023/04/24 00:07:19;;;;;;;42.67;40.08;;;10.60;99.90;;;;;;5105456;28;20043;-70
2023/04/24 00:09:45;;;;;;;43.72;41.03;;;10.60;99.90;;;;;;5087213;28;20048;-70
2023/04/24 00:12:11;;;;;;;45.08;42.42;;;10.60;99.90;;;;;;5074581;28;20035;-70
2023/04/24 00:14:37;;;;;;;41.42;38.95;;;10.60;99.90;;;;;;5091137;28;20039;-70
2023/04/24 00:17:02;;;;;;;39.85;37.58;;;10.50;99.90;;;;;;5074389;28;20040;-70
2023/04/24 00:19:29;;;;;;;43.45;41.08;;;10.50;99.90;;;;;;5090656;28;20040;-70
2023/04/24 00:21:55;;;;;;;45.53;43.00;;;10.50;99.90;;;;;;5089178;28;20513;-70
2023/04/24 00:24:21;;;;;;;41.50;39.28;;;10.50;99.90;;;;;;5109084;27;20074;-70
2023/04/24 00:26:46;;;;;;;42.08;39.72;;;10.50;99.90;;;;;;5108757;27;20126;-70
2023/04/24 00:29:12;;;;;;;48.00;45.53;;;10.40;99.90;;;;;;5107140;28;20482;-70
2023/04/24 00:31:38;;;;;;;68.18;64.78;;;10.40;99.90;;;;;;5091192;28;20039;-70
2023/04/24 00:34:04;;;;;;;52.17;49.58;;;10.40;99.90;;;;;;5091377;28;20370;-70
2023/04/24 00:36:30;;;;;;;53.38;50.83;;;10.40;99.90;;;;;;5088138;28;20040;-70
2023/04/24 00:38:57;;;;;;;51.85;49.20;;;10.30;99.90;;;;;;5089432;28;20032;-70
2023/04/24 00:41:24;;;;;;;50.20;47.65;;;10.30;99.90;;;;;;5085570;28;20036;-70
2023/04/24 00:43:50;;;;;;;49.70;47.40;;;10.20;99.90;;;;;;5075308;28;20046;-70
2023/04/24 00:46:16;;;;;;;50.53;48.05;;;10.20;99.90;;;;;;5090435;27;20111;-70
2023/04/24 00:48:43;;;;;;;50.03;47.63;;;10.20;99.90;;;;;;5074542;28;20066;-70
2023/04/24 00:51:08;;;;;;;51.75;49.25;;;10.20;99.90;;;;;;5107917;27;20454;-70
2023/04/24 00:53:34;;;;;;;53.33;50.83;;;10.20;99.90;;;;;;5073993;28;20130;-69
2023/04/24 00:56:01;;;;;;;50.13;47.67;;;10.20;99.90;;;;;;5089085;28;20043;-69
2023/04/24 00:58:27;;;;;;;51.47;48.97;;;10.20;99.90;;;;;;5090209;28;20048;-70
2023/04/24 01:00:57;;;;;;;49.83;47.42;;;10.20;99.90;;;;;;5088693;28;20035;-69
2023/04/24 01:03:26;;;;;;;49.97;47.53;;;10.20;99.90;;;;;;5090371;28;20028;-70
2023/04/24 01:05:52;;;;;;;53.10;50.55;;;10.20;99.90;;;;;;5088752;28;20085;-69
2023/04/24 01:08:19;;;;;;;55.38;52.75;;;10.20;99.90;;;;;;5087963;27;20046;-69
2023/04/24 01:10:45;;;;;;;53.28;50.80;;;10.20;99.90;;;;;;5088135;27;20097;-70
2023/04/24 01:13:11;;;;;;;51.58;49.05;;;10.20;99.90;;;;;;5092267;27;20046;-70
2023/04/24 01:15:37;;;;;;;56.25;53.60;;;10.20;99.90;;;;;;5087195;28;20495;-70
2023/04/24 01:18:03;;;;;;;54.92;52.25;;;10.20;99.90;;;;;;5089242;27;20042;-70
2023/04/24 01:20:29;;;;;;;57.03;54.33;;;10.20;99.90;;;;;;5089201;28;20035;-70
2023/04/24 01:22:56;;;;;;;58.72;56.03;;;10.20;99.90;;;;;;5089847;27;20034;-70
2023/04/24 01:25:23;;;;;;;56.67;54.05;;;10.10;99.90;;;;;;5089391;28;20046;-70
2023/04/24 01:27:48;;;;;;;55.95;53.25;;;10.10;99.90;;;;;;5077630;28;20064;-70
2023/04/24 01:30:14;;;;;;;57.25;54.65;;;10.10;99.90;;;;;;5104882;28;20104;-70
2023/04/24 01:32:43;;;;;;;58.88;56.10;;;10.00;99.90;;;;;;5090189;28;20043;-70
2023/04/24 01:35:09;;;;;;;56.83;54.22;;;10.00;99.90;;;;;;5072810;28;20047;-70
2023/04/24 01:37:37;;;;;;;53.03;50.55;;;10.00;99.90;;;;;;5087752;28;20035;-69
2023/04/24 01:40:04;;;;;;;55.03;52.25;;;10.00;99.90;;;;;;5089233;28;20101;-69
2023/04/24 01:42:30;;;;;;;55.50;52.95;;;10.00;99.90;;;;;;5090729;27;20050;-70
2023/04/24 01:44:56;;;;;;;53.00;50.55;;;10.00;99.90;;;;;;5085449;27;20471;-70
2023/04/24 01:47:22;;;;;;;52.25;49.85;;;10.00;99.90;;;;;;5091645;28;20048;-70
2023/04/24 01:49:49;;;;;;;50.03;47.70;;;9.90;99.90;;;;;;5089282;27;20083;-70
2023/04/24 01:52:16;;;;;;;54.38;51.65;;;9.90;99.90;;;;;;5106281;27;20544;-70
2023/04/24 01:54:41;;;;;;;54.88;52.33;;;9.90;99.90;;;;;;5070236;28;20157;-70
2023/04/24 01:57:08;;;;;;;54.38;51.72;;;9.90;99.90;;;;;;5089196;28;20061;-69
2023/04/24 01:59:36;;;;;;;52.15;49.67;;;9.90;99.90;;;;;;5090620;27;20120;-69
2023/04/24 02:02:02;;;;;;;52.90;50.42;;;9.90;99.90;;;;;;5088972;28;20066;-69
2023/04/24 02:04:28;;;;;;;51.15;48.72;;;9.90;99.90;;;;;;5090540;28;20463;-69
2023/04/24 02:06:54;;;;;;;50.70;48.25;;;9.90;99.90;;;;;;5088178;28;20040;-70
2023/04/24 02:09:20;;;;;;;52.38;49.80;;;9.90;99.90;;;;;;5105704;28;20070;-69
2023/04/24 02:11:45;;;;;;;50.97;48.38;;;9.90;99.90;;;;;;5107857;27;20039;-70
2023/04/24 02:14:11;;;;;;;48.38;45.92;;;9.90;99.90;;;;;;5087241;28;20035;-69
2023/04/24 02:16:37;;;;;;;43.08;40.88;;;9.90;99.90;;;;;;5089835;28;20039;-69
2023/04/24 02:19:03;;;;;;;45.20;42.88;;;9.90;99.90;;;;;;5072415;28;20408;-69
2023/04/24 02:21:28;;;;;;;49.95;47.45;;;9.90;99.90;;;;;;5074621;28;20122;-69
2023/04/24 02:23:54;;;;;;;48.67;46.17;;;9.90;99.90;;;;;;5088486;28;20040;-69
2023/04/24 02:26:20;;;;;;;47.75;45.25;;;9.90;99.90;;;;;;5085852;28;20050;-70
2023/04/24 02:28:46;;;;;;;48.03;45.53;;;9.90;99.90;;;;;;5085600;28;20059;-69
2023/04/24 02:31:11;;;;;;;49.38;46.88;;;9.90;99.90;;;;;;5091196;27;20050;-69
2023/04/24 02:33:37;;;;;;;47.33;44.90;;;9.90;99.90;;;;;;5088356;28;20032;-69
2023/04/24 02:36:03;;;;;;;44.90;42.38;;;9.90;99.90;;;;;;5087984;28;21011;-69
2023/04/24 02:38:29;;;;;;;49.90;47.30;;;9.90;99.90;;;;;;5089756;28;20038;-69
2023/04/24 02:40:55;;;;;;;54.33;51.55;;;9.90;99.90;;;;;;5083949;28;20070;-69
2023/04/24 02:43:21;;;;;;;54.20;51.47;;;9.90;99.90;;;;;;5073909;28;20059;-69
2023/04/24 02:45:47;;;;;;;53.05;50.28;;;9.90;99.90;;;;;;5106595;28;20103;-70
2023/04/24 02:48:13;;;;;;;52.70;49.83;;;9.90;99.90;;;;;;5085575;28;20051;-70
2023/04/24 02:50:38;;;;;;;51.95;49.25;;;10.00;99.90;;;;;;5071853;27;20031;-69
2023/04/24 02:53:04;;;;;;;51.75;49.00;;;10.00;99.90;;;;;;5080736;28;20044;-69
2023/04/24 02:55:33;;;;;;;51.97;49.08;;;10.00;99.90;;;;;;5104518;28;20050;-69
2023/04/24 02:57:58;;;;;;;50.38;47.55;;;10.00;99.90;;;;;;5087755;27;20042;-70
2023/04/24 03:00:24;;;;;;;54.10;51.17;;;10.00;99.90;;;;;;5086723;28;20036;-69
2023/04/24 03:02:50;;;;;;;56.15;52.90;;;10.00;99.90;;;;;;5089566;28;20043;-70
2023/04/24 03:05:16;;;;;;;57.15;53.95;;;10.00;99.90;;;;;;5067039;28;20047;-69
2023/04/24 03:07:41;;;;;;;56.28;53.03;;;10.00;99.90;;;;;;5088796;28;20395;-69
2023/04/24 03:10:07;;;;;;;55.33;52.22;;;10.00;99.90;;;;;;5087424;28;20047;-70
2023/04/24 03:12:33;;;;;;;58.10;54.80;;;10.00;99.90;;;;;;5084650;28;20036;-70
2023/04/24 03:14:59;;;;;;;55.42;52.22;;;10.10;99.90;;;;;;5105448;28;20047;-69
2023/04/24 03:17:24;;;;;;;56.58;53.17;;;10.10;99.90;;;;;;5106934;28;20533;-70
2023/04/24 03:19:50;;;;;;;58.40;54.92;;;10.10;99.90;;;;;;5085001;28;20046;-70
2023/04/24 03:22:16;;;;;;;57.17;53.90;;;10.10;99.90;;;;;;5088314;28;20043;-69
2023/04/24 03:24:41;;;;;;;61.72;58.13;;;10.10;99.90;;;;;;5068551;28;20046;-69
2023/04/24 03:27:07;;;;;;;60.47;56.88;;;10.10;99.90;;;;;;5070394;28;20548;-70
2023/04/24 03:29:33;;;;;;;60.90;57.45;;;10.10;99.90;;;;;;5068651;28;20127;-70
2023/04/24 03:31:58;;;;;;;63.10;59.47;;;10.10;99.90;;;;;;5089915;28;20056;-69
2023/04/24 03:34:24;;;;;;;60.90;57.30;;;10.10;99.90;;;;;;5106382;28;20039;-70
2023/04/24 03:36:50;;;;;;;59.35;55.80;;;10.10;99.90;;;;;;5085663;28;20173;-69
2023/04/24 03:39:16;;;;;;;60.72;57.03;;;10.20;99.90;;;;;;5066881;28;20136;-69
2023/04/24 03:41:41;;;;;;;62.40;58.72;;;10.20;99.90;;;;;;5088591;28;20031;-69
2023/04/24 03:44:07;;;;;;;61.38;57.58;;;10.20;99.90;;;;;;5089312;28;20047;-70
2023/04/24 03:46:33;;;;;;;61.35;57.65;;;10.20;99.90;;;;;;5086969;28;20189;-69
2023/04/24 03:48:58;;;;;;;62.50;58.70;;;10.20;99.90;;;;;;5086072;28;20043;-69
2023/04/24 03:51:24;;;;;;;62.53;58.83;;;10.20;99.90;;;;;;5084932;28;20051;-69
2023/04/24 03:53:49;;;;;;;64.95;60.78;;;10.20;99.90;;;;;;5088065;28;20046;-69
2023/04/24 03:56:15;;;;;;;65.00;60.90;;;10.20;99.90;;;;;;5087568;28;20611;-69
2023/04/24 03:58:41;;;;;;;68.88;64.63;;;10.20;99.90;;;;;;5104740;28;20156;-68
2023/04/24 04:01:07;;;;;;;67.10;63.00;;;10.20;99.90;;;;;;5084527;28;20132;-68
2023/04/24 04:03:33;;;;;;;68.07;63.83;;;10.20;99.90;;;;;;5086320;28;20044;-68
2023/04/24 04:05:59;;;;;;;74.38;70.07;;;10.20;99.90;;;;;;5103804;28;20052;-69
2023/04/24 04:08:25;;;;;;;78.32;73.68;;;10.20;99.90;;;;;;5123042;27;20046;-69
2023/04/24 04:10:50;;;;;;;73.63;69.25;;;10.20;99.90;;;;;;5069879;28;20475;-69
2023/04/24 04:13:16;;;;;;;78.15;73.45;;;10.20;99.90;;;;;;5089203;28;20127;-69
2023/04/24 04:15:41;;;;;;;77.65;73.05;;;10.20;99.90;;;;;;5087784;28;20054;-68
2023/04/24 04:18:08;;;;;;;81.25;76.43;;;10.20;99.90;;;;;;5074216;28;20042;-68
2023/04/24 04:20:33;;;;;;;78.25;73.72;;;10.10;99.90;;;;;;5104859;28;20455;-69
2023/04/24 04:22:59;;;;;;;81.22;76.72;;;10.20;99.90;;;;;;5090386;27;20142;-69
2023/04/24 04:25:25;;;;;;;79.53;74.85;;;10.20;99.90;;;;;;5121990;27;20535;-68
2023/04/24 04:27:52;;;;;;;79.72;75.07;;;10.10;99.90;;;;;;5108400;27;20106;-68
2023/04/24 04:30:17;;;;;;;74.70;70.07;;;10.10;99.90;;;;;;5073859;28;20457;-69
2023/04/24 04:32:44;;;;;;;73.05;68.47;;;10.20;99.90;;;;;;5092611;27;20121;-69
2023/04/24 04:35:09;;;;;;;73.90;69.38;;;10.20;99.90;;;;;;5088056;28;20046;-69
2023/04/24 04:37:36;;;;;;;67.57;63.58;;;10.20;99.90;;;;;;5106699;27;20078;-69
2023/04/24 04:40:06;;;;;;;60.35;56.95;;;10.20;99.90;;;;;;5074216;28;20624;-69
2023/04/24 04:42:33;;;;;;;58.22;54.90;;;10.20;99.90;;;;;;5087837;28;20398;-69
2023/04/24 04:45:00;;;;;;;61.97;58.47;;;10.20;99.90;;;;;;5074869;27;20638;-69
2023/04/24 04:47:26;;;;;;;62.72;59.38;;;10.20;99.90;;;;;;5091008;28;20409;-70
2023/04/24 04:49:52;;;;;;;63.05;59.95;;;10.20;99.90;;;;;;5071876;28;20040;-69
2023/04/24 04:52:18;;;;;;;60.78;57.75;;;10.20;99.90;;;;;;5091756;27;20601;-69
2023/04/24 04:54:44;;;;;;;60.28;57.30;;;10.30;99.90;;;;;;5090011;28;20036;-69
2023/04/24 04:57:10;;;;;;;57.42;54.80;;;10.30;99.90;;;;;;5080770;28;20044;-69
2023/04/24 04:59:37;;;;;;;59.63;56.90;;;10.30;99.90;;;;;;5082599;28;20047;-69
2023/04/24 05:02:02;;;;;;;56.92;54.03;;;10.30;99.90;;;;;;5071469;28;20046;-69
2023/04/24 05:04:28;;;;;;;57.92;55.25;;;10.20;99.90;;;;;;5099057;27;20039;-69
2023/04/24 05:06:53;;;;;;;56.97;54.28;;;10.20;99.90;;;;;;5088251;27;20051;-69
2023/04/24 05:09:19;;;;;;;61.20;58.50;;;10.20;99.90;;;;;;5072523;28;20217;-69
2023/04/24 05:11:45;;;;;;;70.10;66.95;;;10.20;99.90;;;;;;5090463;28;20048;-69
2023/04/24 05:14:12;;;;;;;64.32;61.42;;;10.20;99.90;;;;;;5088071;27;20040;-69
2023/04/24 05:16:38;;;;;;;67.53;64.57;;;10.20;99.90;;;;;;5090157;27;20147;-69
2023/04/24 05:19:03;;;;;;;68.55;65.32;;;10.20;99.90;;;;;;5085216;28;20539;-69
2023/04/24 05:21:29;;;;;;;66.03;63.03;;;10.20;99.90;;;;;;5088540;28;20031;-69
2023/04/24 05:23:54;;;;;;;67.00;64.05;;;10.20;99.90;;;;;;5086972;27;20517;-69
2023/04/24 05:26:20;;;;;;;59.47;56.67;;;10.20;99.90;;;;;;5090294;28;20047;-69
2023/04/24 05:28:46;;;;;;;67.10;64.00;;;10.20;99.90;;;;;;5104132;27;20186;-69
2023/04/24 05:31:12;;;;;;;79.38;75.75;;;10.20;99.90;;;;;;5090299;28;20040;-69
2023/04/24 05:33:38;;;;;;;73.47;70.07;;;10.10;99.90;;;;;;5090257;28;20111;-69
2023/04/24 05:36:05;;;;;;;66.90;63.90;;;10.10;99.90;;;;;;5091273;27;20051;-69
2023/04/24 05:38:30;;;;;;;51.63;49.17;;;10.20;99.90;;;;;;5073889;28;20087;-68
2023/04/24 05:40:56;;;;;;;53.10;50.60;;;10.20;99.90;;;;;;5092448;28;20048;-69
2023/04/24 05:43:22;;;;;;;51.78;49.30;;;10.10;99.90;;;;;;5088709;27;20066;-69
2023/04/24 05:45:47;;;;;;;62.70;59.75;;;10.10;99.90;;;;;;5093345;28;20071;-69
2023/04/24 05:48:13;;;;;;;50.35;47.95;;;10.10;99.90;;;;;;5088580;28;20069;-69
2023/04/24 05:50:39;;;;;;;49.10;46.63;;;10.10;99.90;;;;;;5087940;28;20035;-69
2023/04/24 05:53:06;;;;;;;44.95;42.67;;;10.00;99.90;;;;;;5092584;28;20110;-69
2023/04/24 05:55:32;;;;;;;66.65;63.40;;;10.00;99.90;;;;;;5090786;28;20051;-68
2023/04/24 05:57:58;;;;;;;47.22;44.67;;;10.00;99.90;;;;;;5093154;28;20039;-69
2023/04/24 06:00:25;;;;;;;47.63;45.17;;;10.00;99.90;;;;;;5085316;28;20126;-69
2023/04/24 06:02:51;;;;;;;48.70;46.10;;;10.00;99.90;;;;;;5089722;28;20084;-69
2023/04/24 06:05:17;;;;;;;47.53;44.95;;;9.90;99.90;;;;;;5086140;28;20139;-69
2023/04/24 06:07:43;;;;;;;48.15;45.35;;;9.90;99.90;;;;;;5106209;28;20146;-69
2023/04/24 06:10:09;;;;;;;44.28;41.58;;;10.00;99.90;;;;;;5104980;28;20047;-69
2023/04/24 06:12:35;;;;;;;72.40;68.70;;;10.00;99.90;;;;;;5089684;28;20155;-68
2023/04/24 06:15:01;;;;;;;50.00;47.15;;;10.00;99.90;;;;;;5108317;28;20043;-68
2023/04/24 06:17:26;;;;;;;47.13;44.38;;;10.00;99.90;;;;;;5086105;28;20543;-69
2023/04/24 06:19:52;;;;;;;44.70;42.08;;;10.00;99.90;;;;;;5089637;28;20067;-68
2023/04/24 06:22:17;;;;;;;41.33;38.65;;;10.00;99.90;;;;;;5091013;28;20077;-69
2023/04/24 06:24:43;;;;;;;42.30;39.97;;;10.00;99.90;;;;;;5085778;28;20084;-69
2023/04/24 06:27:09;;;;;;;49.45;46.45;;;10.10;99.90;;;;;;5083966;28;20059;-68
2023/04/24 06:29:35;;;;;;;46.22;43.53;;;10.10;99.90;;;;;;5069299;27;20059;-68
2023/04/24 06:32:01;;;;;;;42.78;40.35;;;10.10;99.90;;;;;;5089814;27;20040;-68
2023/04/24 06:34:27;;;;;;;66.70;63.10;;;10.10;99.90;;;;;;5076029;27;20035;-68
2023/04/24 06:36:52;;;;;;;39.88;37.65;;;10.20;99.90;;;;;;5117677;27;20168;-68
2023/04/24 06:39:18;;;;;;;38.38;36.13;;;10.20;99.90;;;;;;5071648;28;20047;-68
2023/04/24 06:41:43;;;;;;;43.70;41.50;;;10.20;99.90;;;;;;5090230;28;20067;-69
2023/04/24 06:44:09;;;;;;;50.30;47.88;;;10.20;99.90;;;;;;5075830;27;20039;-69
2023/04/24 06:46:35;;;;;;;42.90;40.38;;;10.20;99.90;;;;;;5091902;28;20347;-69
2023/04/24 06:49:00;;;;;;;46.53;44.13;;;10.20;99.90;;;;;;5091682;28;20047;-69
2023/04/24 06:51:27;;;;;;;41.47;39.28;;;10.20;99.90;;;;;;5089106;28;20550;-69
2023/04/24 06:53:56;;;;;;;48.72;46.20;;;10.20;99.90;;;;;;5089800;27;20035;-68
2023/04/24 06:56:22;;;;;;;58.85;55.60;;;10.20;99.90;;;;;;5086575;28;20040;-69
2023/04/24 06:58:48;;;;;;;54.92;52.35;;;10.20;99.90;;;;;;5121135;27;20035;-69
2023/04/24 07:01:14;;;;;;;53.08;50.47;;;10.10;99.90;;;;;;5111241;27;20569;-68
2023/04/24 07:03:39;;;;;;;51.55;49.08;;;10.20;99.90;;;;;;5086579;28;20031;-68
2023/04/24 07:06:05;;;;;;;56.05;53.35;;;10.20;99.90;;;;;;5103206;28;20080;-69
2023/04/24 07:08:32;;;;;;;64.00;60.97;;;10.20;99.90;;;;;;5086836;28;20084;-68
2023/04/24 07:10:58;;;;;;;61.85;59.03;;;10.20;99.90;;;;;;5087415;28;20518;-68
2023/04/24 07:13:24;;;;;;;57.10;54.25;;;10.20;99.90;;;;;;5088160;28;20092;-68
2023/04/24 07:15:52;;;;;;;90.55;86.25;;;10.10;99.90;;;;;;5072027;28;20035;-68
2023/04/24 07:18:18;;;;;;;77.40;73.50;;;10.10;99.90;;;;;;5089763;28;20577;-68
2023/04/24 07:20:44;;;;;;;70.20;67.03;;;10.10;99.90;;;;;;5071446;28;20095;-68
2023/04/24 07:23:10;;;;;;;53.78;51.15;;;10.00;99.90;;;;;;5088298;28;20052;-69
2023/04/24 07:25:36;;;;;;;75.05;71.45;;;9.90;99.90;;;;;;5071689;28;20055;-68
2023/04/24 07:28:02;;;;;;;57.83;54.80;;;10.00;99.90;;;;;;5077220;28;20063;-68
2023/04/24 07:30:29;;;;;;;72.75;69.55;;;9.90;99.90;;;;;;5083661;28;20047;-68
2023/04/24 07:32:55;;;;;;;58.15;55.53;;;9.90;99.90;;;;;;5083949;28;20045;-68
2023/04/24 07:35:21;;;;;;;65.50;62.17;;;9.90;99.90;;;;;;5071739;28;20040;-68
2023/04/24 07:37:47;;;;;;;59.80;57.03;;;9.80;99.90;;;;;;5081392;28;20609;-69
2023/04/24 07:40:13;;;;;;;66.57;62.90;;;9.80;99.90;;;;;;5081776;28;20130;-68
2023/04/24 07:42:39;;;;;;;116.28;109.28;;;9.80;99.90;;;;;;5086893;28;20114;-68
2023/04/24 07:45:05;;;;;;;68.25;64.22;;;9.70;99.90;;;;;;5098662;28;20142;-69
2023/04/24 07:47:32;;;;;;;78.07;73.78;;;9.70;99.90;;;;;;5102673;28;20433;-68
2023/04/24 07:49:58;;;;;;;55.53;52.08;;;9.70;99.90;;;;;;5081767;28;20051;-68
2023/04/24 07:52:24;;;;;;;63.92;60.08;;;9.60;99.90;;;;;;5074287;28;20048;-68
2023/04/24 07:54:52;;;;;;;73.35;67.57;;;9.70;99.90;;;;;;5081691;28;20425;-68
2023/04/24 07:57:18;;;;;;;62.00;58.00;;;9.60;99.90;;;;;;5084384;27;20039;-68
2023/04/24 07:59:44;;;;;;;84.75;79.03;;;9.60;99.90;;;;;;5087368;28;20035;-70
2023/04/24 08:02:09;;;;;;;66.85;62.03;;;9.60;99.90;;;;;;5069738;27;20043;-69
2023/04/24 08:04:35;;;;;;;88.55;82.88;;;9.50;99.90;;;;;;5104694;27;20574;-68
2023/04/24 08:07:00;;;;;;;71.55;66.53;;;9.50;99.90;;;;;;5103778;27;20483;-68
2023/04/24 08:09:26;;;;;;;72.85;67.65;;;9.50;99.90;;;;;;5074918;28;20040;-68
2023/04/24 08:11:53;;;;;;;68.60;64.50;;;9.40;99.90;;;;;;5084712;27;20376;-68
2023/04/24 08:14:18;;;;;;;72.43;67.72;;;9.40;99.90;;;;;;5084389;28;20101;-68
2023/04/24 08:16:44;;;;;;;91.65;86.22;;;9.40;99.90;;;;;;5086116;27;20306;-68
2023/04/24 08:19:10;;;;;;;83.88;79.15;;;9.40;99.90;;;;;;5053648;28;20042;-68
2023/04/24 08:21:35;;;;;;;72.53;67.93;;;9.50;99.90;;;;;;5089928;28;20452;-68
2023/04/24 08:24:04;;;;;;;69.15;64.60;;;9.40;99.90;;;;;;5087088;28;20047;-69
2023/04/24 08:26:31;;;;;;;65.45;60.95;;;9.40;99.90;;;;;;5086311;28;20044;-68
2023/04/24 08:28:57;;;;;;;76.68;71.97;;;9.40;99.90;;;;;;5103740;28;20059;-68
2023/04/24 08:31:24;;;;;;;76.82;72.15;;;9.40;99.90;;;;;;5105515;27;20039;-68
2023/04/24 08:33:50;;;;;;;68.20;64.00;;;9.40;99.90;;;;;;5103572;27;20043;-69
2023/04/24 08:36:15;;;;;;;67.30;62.97;;;9.30;99.90;;;;;;5090696;27;20525;-68
2023/04/24 08:38:42;;;;;;;96.05;90.43;;;9.30;99.90;;;;;;5091294;28;20429;-68
2023/04/24 08:41:09;;;;;;;71.70;67.20;;;9.30;99.90;;;;;;5088481;27;20043;-68
2023/04/24 08:43:36;;;;;;;75.68;70.97;;;9.20;99.90;;;;;;5075431;28;20062;-69
2023/04/24 08:46:04;;;;;;;68.78;64.68;;;9.20;99.90;;;;;;5071692;28;20047;-68
2023/04/24 08:48:31;;;;;;;69.47;65.32;;;9.20;99.90;;;;;;5086535;28;20077;-68
2023/04/24 08:50:58;;;;;;;72.80;68.20;;;9.30;99.90;;;;;;5101551;27;20448;-68
2023/04/24 08:53:25;;;;;;;69.00;64.72;;;9.20;99.90;;;;;;5072877;28;20042;-68
2023/04/24 08:55:51;;;;;;;73.93;69.55;;;9.20;99.90;;;;;;5086741;28;20043;-68
2023/04/24 08:58:17;;;;;;;79.80;74.93;;;9.20;99.90;;;;;;5069889;28;20043;-68
2023/04/24 09:00:46;;;;;;;70.15;65.88;;;9.30;99.90;;;;;;5093511;28;20126;-68
2023/04/24 09:03:15;;;;;;;60.25;56.33;;;9.30;99.90;;;;;;5072371;28;20121;-68
2023/04/24 09:05:45;;;;;;;70.18;65.85;;;9.30;99.90;;;;;;5106456;27;20535;-68
2023/04/24 09:08:13;;;;;;;57.83;54.20;;;9.30;99.90;;;;;;5106009;27;20047;-69
2023/04/24 09:10:40;;;;;;;57.70;54.28;;;9.40;99.90;;;;;;5081507;28;20076;-68
2023/04/24 09:13:05;;;;;;;51.13;47.80;;;9.40;99.90;;;;;;5089549;27;20040;-68
2023/04/24 09:15:32;;;;;;;65.90;62.30;;;9.50;99.90;;;;;;5108838;27;20044;-68
2023/04/24 09:17:57;;;;;;;66.10;62.53;;;9.50;99.90;;;;;;5086988;28;20070;-69
2023/04/24 09:20:23;;;;;;;47.67;44.90;;;9.50;99.90;;;;;;5086716;28;20491;-68
2023/04/24 09:22:55;;;;;;;45.95;42.97;;;9.60;99.90;;;;;;5086076;27;20126;-69
2023/04/24 09:25:21;;;;;;;45.63;42.65;;;9.60;99.90;;;;;;5104008;27;20039;-68
2023/04/24 09:27:47;;;;;;;43.85;41.00;;;9.60;99.90;;;;;;5070347;27;20394;-68
2023/04/24 09:30:13;;;;;;;44.53;41.65;;;9.70;99.90;;;;;;5071026;28;20044;-68
2023/04/24 09:32:39;;;;;;;48.33;45.50;;;9.60;99.90;;;;;;5089181;28;20446;-68
2023/04/24 09:35:07;;;;;;;40.95;37.83;;;9.60;99.90;;;;;;5072491;28;20051;-68
2023/04/24 09:37:39;;;;;;;40.72;37.95;;;9.60;99.90;;;;;;5088664;28;20557;-69
2023/04/24 09:40:11;;;;;;;40.80;37.92;;;9.60;99.90;;;;;;5069954;28;20039;-69
2023/04/24 09:42:37;;;;;;;39.72;36.95;;;9.60;99.90;;;;;;5099493;27;20039;-69
2023/04/24 09:45:03;;;;;;;34.47;31.95;;;9.70;99.90;;;;;;5102198;27;20115;-68
2023/04/24 09:47:36;;;;;;;39.60;37.00;;;9.70;99.90;;;;;;5087127;28;20118;-68
2023/04/24 09:50:16;;;;;;;33.53;31.30;;;9.70;99.90;;;;;;5086438;28;20051;-69
2023/04/24 09:52:43;;;;;;;37.08;34.05;;;9.70;99.90;;;;;;5070082;28;20051;-69
2023/04/24 09:55:19;;;;;;;40.38;37.45;;;9.80;99.90;;;;;;5087868;28;20040;-69
2023/04/24 09:58:05;;;;;;;37.97;35.47;;;9.90;99.90;;;;;;5122045;27;20042;-69
2023/04/24 10:00:33;;;;;;;34.40;32.28;;;10.00;99.90;;;;;;5088029;28;20044;-68
2023/04/24 10:03:01;;;;;;;36.72;34.75;;;10.10;99.90;;;;;;5087700;28;20058;-68
2023/04/24 10:05:35;;;;;;;49.20;46.50;;;10.20;99.90;;;;;;5080223;27;20489;-68
2023/04/24 10:08:09;;;;;;;52.15;49.20;;;10.30;99.90;;;;;;5090600;28;20122;-70
2023/04/24 10:10:42;;;;;;;46.97;44.15;;;10.40;99.90;;;;;;5084393;28;20115;-69
2023/04/24 10:13:14;;;;;;;49.58;46.58;;;10.40;99.90;;;;;;5072705;28;20061;-68
2023/04/24 10:15:41;;;;;;;67.75;64.05;;;10.50;99.90;;;;;;5085616;28;20048;-69
2023/04/24 10:18:08;;;;;;;56.03;52.78;;;10.50;99.90;;;;;;5084315;28;20107;-68
2023/04/24 10:20:35;;;;;;;92.97;88.20;;;10.50;99.90;;;;;;5087704;28;20043;-68
2023/04/24 10:23:02;;;;;;;104.78;99.93;;;10.40;99.90;;;;;;5087144;28;20035;-68
2023/04/24 10:25:33;;;;;;;115.65;110.05;;;10.40;99.90;;;;;;5085418;28;20044;-69
2023/04/24 10:28:00;;;;;;;85.50;81.70;;;10.50;99.90;;;;;;5078447;28;20059;-69
2023/04/24 10:30:34;;;;;;;93.82;89.38;;;10.50;99.90;;;;;;5084067;27;20051;-69
2023/04/24 10:33:01;;;;;;;;;;;10.50;99.90;;;;;;5082603;28;20517;-69
2023/04/24 10:35:40;;;;;;;79.68;75.97;;;10.60;99.90;;;;;;5064545;28;19920;-71
2023/04/24 10:38:13;;;;;;;121.78;116.47;;;10.70;99.90;;;;;;5077345;28;20101;-69
2023/04/24 10:40:39;;;;;;;172.75;165.35;;;10.70;99.90;;;;;;5085066;28;20130;-69
2023/04/24 10:43:16;;;;;;;107.88;103.18;;;10.60;99.90;;;;;;5083204;28;20073;-69
2023/04/24 10:46:04;;;;;;;123.63;118.18;;;10.50;99.90;;;;;;5083582;28;20040;-69
2023/04/24 10:48:30;;;;;;;211.90;198.02;;;10.50;99.90;;;;;;5099274;28;20051;-69
2023/04/24 10:50:56;;;;;;;118.78;113.50;;;10.50;99.90;;;;;;5081603;28;20066;-69
2023/04/24 10:53:23;;;;;;;119.90;114.72;;;10.50;99.90;;;;;;5074967;28;20039;-69
2023/04/24 10:55:51;;;;;;;101.07;96.57;;;10.50;99.90;;;;;;5109109;27;20463;-69
2023/04/24 10:58:22;;;;;;;131.23;125.50;;;10.50;99.90;;;;;;5080273;28;20039;-69
2023/04/24 11:00:57;;;;;;;160.00;153.45;;;10.50;99.90;;;;;;5082423;28;20042;-69
2023/04/24 11:03:26;;;;;;;139.60;133.50;;;10.60;99.90;;;;;;5082520;27;20047;-69
2023/04/24 11:05:53;;;;;;;144.60;138.35;;;10.60;99.90;;;;;;5083296;28;20043;-69
2023/04/24 11:08:32;;;;;;;147.70;141.05;;;10.60;99.90;;;;;;5077294;28;20044;-69
2023/04/24 11:11:08;;;;;;;115.38;110.20;;;10.60;99.90;;;;;;5084750;28;20040;-69
2023/04/24 11:13:53;;;;;;;164.68;156.68;;;10.50;99.90;;;;;;5083847;28;20071;-69
2023/04/24 11:16:41;;;;;;;157.52;149.98;;;10.40;99.90;;;;;;5084033;27;20356;-69
2023/04/24 11:19:14;;;;;;;115.97;111.10;;;10.40;99.90;;;;;;5108175;27;20118;-69
2023/04/24 11:21:41;;;;;;;130.17;124.63;;;10.50;99.90;;;;;;5082380;28;20042;-69
2023/04/24 11:24:29;;;;;;;148.18;141.77;;;10.60;99.90;;;;;;5070039;28;20298;-69
2023/04/24 11:27:02;;;;;;;132.35;126.70;;;10.60;99.90;;;;;;5084054;28;20043;-69
2023/04/24 11:29:49;;;;;;;171.73;164.25;;;10.70;99.90;;;;;;5104701;27;20055;-70
2023/04/24 11:32:24;;;;;;;129.52;124.07;;;10.70;99.90;;;;;;5108479;27;20048;-69
2023/04/24 11:34:52;;;;;;;137.13;131.07;;;10.80;99.90;;;;;;5086630;28;20040;-69
2023/04/24 11:37:18;;;;;;;128.60;123.05;;;10.90;99.90;;;;;;5090422;28;20040;-69
2023/04/24 11:39:43;;;;;;;161.40;154.55;;;10.90;99.90;;;;;;5107091;27;20482;-69
2023/04/24 11:42:09;;;;;;;139.50;133.50;;;10.80;99.90;;;;;;5074108;28;20031;-69
2023/04/24 11:44:38;;;;;;;159.70;152.45;;;10.70;99.90;;;;;;5110976;27;20086;-69
2023/04/24 11:47:08;;;;;;;233.50;221.55;;;10.60;99.90;;;;;;5086966;28;20035;-69
2023/04/24 11:49:36;;;;;;;174.98;167.88;;;10.40;99.90;;;;;;5089783;28;20115;-69
2023/04/24 11:52:02;;;;;;;125.53;120.35;;;10.20;99.90;;;;;;5103961;27;20040;-69
2023/04/24 11:54:28;;;;;;;114.13;109.20;;;10.00;99.90;;;;;;5109151;27;20473;-69
2023/04/24 11:56:53;;;;;;;117.07;112.03;;;9.90;99.90;;;;;;5102039;28;20036;-69
2023/04/24 11:59:19;;;;;;;108.32;103.90;;;9.80;99.90;;;;;;5073416;28;20059;-69
2023/04/24 12:01:45;;;;;;;100.45;96.28;;;9.70;99.90;;;;;;5088680;28;20035;-69
2023/04/24 12:04:12;;;;;;;91.95;87.70;;;9.70;99.90;;;;;;5070167;28;20051;-69
2023/04/24 12:06:37;;;;;;;97.25;93.18;;;9.60;99.90;;;;;;5121414;27;20051;-69
2023/04/24 12:09:03;;;;;;;85.70;81.80;;;9.70;99.90;;;;;;5089770;28;20050;-70
2023/04/24 12:11:29;;;;;;;101.07;96.97;;;9.90;99.90;;;;;;5090309;27;20376;-69
2023/04/24 12:13:55;;;;;;;108.07;103.50;;;10.00;99.90;;;;;;5090520;28;20062;-69
2023/04/24 12:16:20;;;;;;;109.30;104.75;;;10.20;99.90;;;;;;5087560;27;20498;-69
2023/04/24 12:18:46;;;;;;;145.70;139.63;;;10.40;99.90;;;;;;5090300;28;20123;-69
2023/04/24 12:21:20;;;;;;;152.80;146.55;;;10.50;99.90;;;;;;5090015;28;20032;-69
2023/04/24 12:23:45;;;;;;;120.20;115.38;;;10.50;99.90;;;;;;5089139;28;20055;-69
2023/04/24 12:26:18;;;;;;;138.00;132.10;;;10.60;99.90;;;;;;5089024;28;20043;-69